Flight Track Log - Related Links

Times and Time Zones

All times are in EDT time to prevent confusion due to time zone crossing. See the N2827N flight status page for this flight to view local times or setup timezone preferences in your user account.

Time Position Orientation Groundspeed Altitude Reporting Facility
EDT Latitude Longitude Course Direction KTS MPH feet Rate Location/Type
Wed 11:40:06 AM 26.5669 -81.9361 331° Northwest 96 110 1,900  Level Miami Center
Wed 11:41:08 AM 26.5925 -81.9561 325° Northwest 111 128 2,400 484 Climbing Miami Center
Wed 11:42:10 AM 26.6214 -81.9767 328° Northwest 112 129 2,900 484 Climbing Miami Center
Wed 11:43:12 AM 26.6475 -81.9944 329° Northwest 112 129 3,400 528 Climbing Miami Center
Wed 11:44:00 AM 26.7922 -81.9802 340° North  Level FlightAware Approximate
Wed 11:44:15 AM 26.6778 -82.0150 329° Northwest 114 131 4,000  Level Miami Center
Wed 11:45:00 AM 26.8250 -82.0051 331° Northwest  Level FlightAware Approximate
Wed 11:45:17 AM 26.7050 -82.0361 325° Northwest 116 133 4,400  Level Miami Center
Wed 11:46:19 AM 26.7367 -82.0600 326° Northwest 125 144 4,900 484 Climbing Miami Center
Wed 11:47:21 AM 26.7656 -82.0825 325° Northwest 125 144 5,400 484 Climbing Miami Center
Wed 11:48:23 AM 26.7964 -82.1067 325° Northwest 126 145 5,900 484 Climbing Miami Center
Wed 11:49:25 AM 26.8269 -82.1314 324° Northwest 126 145 6,400 336 Climbing Miami Center
Wed 11:50:28 AM 26.8556 -82.1544 324° Northwest 128 147 6,600 64 Climbing Miami Center
Wed 11:52:32 AM 26.9228 -82.2111 323° Northwest 148 170 6,600 -32 Level Miami Center
Wed 11:53:34 AM 26.9594 -82.2444 321° Northwest 156 180 6,500 -48 Descending Miami Center
Wed 11:54:36 AM 26.9928 -82.2744 321° Northwest 156 180 6,500  Level Miami Center
Wed 11:55:39 AM 27.0244 -82.3031 321° Northwest 156 180 6,500  Level Miami Center
Wed 11:56:41 AM 27.0578 -82.3331 321° Northwest 156 180 6,500  Level Miami Center
Wed 11:57:43 AM 27.0989 -82.3683 323° Northwest 156 180 6,500  Level Miami Center
Wed 11:58:45 AM 27.1331 -82.3981 322° Northwest 156 180 6,500 48 Level Miami Center
Wed 11:59:47 AM 27.1681 -82.4267 324° Northwest 155 178 6,600  Climbing Miami Center
Wed 12:00:50 PM 27.2031 -82.4536 326° Northwest 156 180 6,500 -48 Descending Miami Center
Wed 12:01:52 PM 27.2392 -82.4814 326° Northwest 156 180 6,500  Level Miami Center
Wed 12:02:54 PM 27.2731 -82.5100 323° Northwest 155 178 6,500 -145 Level Miami Center
Wed 12:03:56 PM 27.3144 -82.5472 321° Northwest 157 181 6,200 -269 Descending Miami Center
Wed 12:05:08 PM 27.3667 -82.5833 328° Northwest 167 192 5,900 -318 Descending Tampa TRACON
Wed 12:06:08 PM 27.4000 -82.6000 336° Northwest 168 193 5,500 -350 Descending Tampa TRACON
Wed 12:07:08 PM 27.4500 -82.6333 329° Northwest 167 192 5,200 -310 Descending Tampa TRACON
Wed 12:08:04 PM 27.4778 -82.6467 337° Northwest 166 191 4,900 -356 Descending Miami Center
Wed 12:09:06 PM 27.5231 -82.6583 347° North 166 191 4,500 -432 Descending Miami Center
Wed 12:10:09 PM 27.5789 -82.6642 355° North 166 191 4,000 -528 Descending Miami Center
Wed 12:11:11 PM 27.6258 -82.6675 356° North 166 191 3,400 -555 Descending Miami Center
Wed 12:12:08 PM 27.6667 -82.6667 North 165 190 2,900 -458 Descending Tampa TRACON
Wed 12:13:09 PM 27.7167 -82.6833 344° North 157 181 2,500 -381 Descending Tampa TRACON
Wed 12:14:14 PM 27.7667 -82.6833 360° North 148 170 2,100 -476 Descending Tampa TRACON
Wed 12:15:15 PM 27.8000 -82.6833 360° North 154 177 1,500 -595 Descending Tampa TRACON
Wed 12:16:15 PM 27.8500 -82.6833 360° North 156 180 900 -550 Descending Tampa TRACON
Wed 12:17:15 PM 27.8833 -82.6833 360° North 110 127 400 -500 Descending Tampa TRACON
Wed 12:19:00 PM 27.9000 -82.6833 348° North  Level FlightAware Approximate
Wed 12:26:00 PM 27.9100 -82.6875 340° North  Level Estimated
Wed 12:27:00 PM 27.9100 -82.6875 North  Level Estimated

Login

Don't have an account? Register now (free) for customized features, flight alerts, and more!